sensor_id;sensor_type;location;lat;lon;timestamp;pressure;altitude;pressure_sealevel;temperature;humidity
54600;BME280;40500;51.084;16.958;2023-03-20T00:01:29;100316.99;;;8.18;100.00
54600;BME280;40500;51.084;16.958;2023-03-20T00:04:00;100314.90;;;8.20;100.00
54600;BME280;40500;51.084;16.958;2023-03-20T00:06:31;100313.48;;;8.22;100.00
54600;BME280;40500;51.084;16.958;2023-03-20T00:09:03;100312.44;;;8.23;100.00
54600;BME280;40500;51.084;16.958;2023-03-20T00:11:42;100314.70;;;8.23;100.00
54600;BME280;40500;51.084;16.958;2023-03-20T00:14:20;100314.86;;;8.24;100.00
54600;BME280;40500;51.084;16.958;2023-03-20T00:16:52;100316.59;;;8.26;100.00
54600;BME280;40500;51.084;16.958;2023-03-20T00:19:25;100317.61;;;8.28;100.00
54600;BME280;40500;51.084;16.958;2023-03-20T00:21:58;100314.12;;;8.30;100.00
54600;BME280;40500;51.084;16.958;2023-03-20T00:24:28;100313.05;;;8.32;100.00
54600;BME280;40500;51.084;16.958;2023-03-20T00:27:01;100312.52;;;8.34;100.00
54600;BME280;40500;51.084;16.958;2023-03-20T00:29:33;100309.16;;;8.37;100.00
54600;BME280;40500;51.084;16.958;2023-03-20T00:32:04;100310.01;;;8.40;100.00
54600;BME280;40500;51.084;16.958;2023-03-20T00:34:35;100310.22;;;8.43;100.00
54600;BME280;40500;51.084;16.958;2023-03-20T00:37:05;100308.63;;;8.44;100.00
54600;BME280;40500;51.084;16.958;2023-03-20T00:39:36;100306.16;;;8.46;100.00
54600;BME280;40500;51.084;16.958;2023-03-20T00:42:10;100306.85;;;8.47;100.00
54600;BME280;40500;51.084;16.958;2023-03-20T00:44:46;100310.33;;;8.48;100.00
54600;BME280;40500;51.084;16.958;2023-03-20T00:47:20;100309.62;;;8.51;100.00
54600;BME280;40500;51.084;16.958;2023-03-20T00:49:54;100307.16;;;8.52;100.00
54600;BME280;40500;51.084;16.958;2023-03-20T00:52:27;100307.84;;;8.54;100.00
54600;BME280;40500;51.084;16.958;2023-03-20T00:55:06;100305.56;;;8.55;100.00
54600;BME280;40500;51.084;16.958;2023-03-20T00:57:41;100309.73;;;8.56;100.00
54600;BME280;40500;51.084;16.958;2023-03-20T01:00:23;100306.05;;;8.57;100.00
54600;BME280;40500;51.084;16.958;2023-03-20T01:02:56;100303.60;;;8.59;100.00
54600;BME280;40500;51.084;16.958;2023-03-20T01:05:28;100302.71;;;8.59;100.00
54600;BME280;40500;51.084;16.958;2023-03-20T01:07:58;100297.80;;;8.62;100.00
54600;BME280;40500;51.084;16.958;2023-03-20T01:10:36;100299.90;;;8.62;100.00
54600;BME280;40500;51.084;16.958;2023-03-20T01:13:16;100293.78;;;8.63;100.00
54600;BME280;40500;51.084;16.958;2023-03-20T01:15:49;100294.46;;;8.65;100.00
54600;BME280;40500;51.084;16.958;2023-03-20T01:18:22;100296.39;;;8.65;100.00
54600;BME280;40500;51.084;16.958;2023-03-20T01:20:54;100299.52;;;8.65;100.00
54600;BME280;40500;51.084;16.958;2023-03-20T01:23:25;100303.02;;;8.67;100.00
54600;BME280;40500;51.084;16.958;2023-03-20T01:25:56;100303.53;;;8.67;100.00
54600;BME280;40500;51.084;16.958;2023-03-20T01:28:30;100305.10;;;8.67;100.00
54600;BME280;40500;51.084;16.958;2023-03-20T01:31:02;100307.36;;;8.67;100.00
54600;BME280;40500;51.084;16.958;2023-03-20T01:33:33;100311.05;;;8.66;100.00
54600;BME280;40500;51.084;16.958;2023-03-20T01:36:04;100307.55;;;8.67;100.00
54600;BME280;40500;51.084;16.958;2023-03-20T01:38:35;100314.70;;;8.67;100.00
54600;BME280;40500;51.084;16.958;2023-03-20T01:41:09;100313.49;;;8.66;100.00
54600;BME280;40500;51.084;16.958;2023-03-20T01:43:42;100314.02;;;8.65;100.00
54600;BME280;40500;51.084;16.958;2023-03-20T01:46:19;100312.80;;;8.65;100.00
54600;BME280;40500;51.084;16.958;2023-03-20T01:49:07;100311.95;;;8.62;100.00
54600;BME280;40500;51.084;16.958;2023-03-20T01:51:37;100316.68;;;8.61;100.00
54600;BME280;40500;51.084;16.958;2023-03-20T01:54:16;100318.96;;;8.58;100.00
54600;BME280;40500;51.084;16.958;2023-03-20T01:56:55;100317.23;;;8.57;100.00
54600;BME280;40500;51.084;16.958;2023-03-20T01:59:30;100322.32;;;8.55;100.00
54600;BME280;40500;51.084;16.958;2023-03-20T02:02:04;100321.80;;;8.55;100.00
54600;BME280;40500;51.084;16.958;2023-03-20T02:04:40;100320.75;;;8.54;100.00
54600;BME280;40500;51.084;16.958;2023-03-20T02:07:16;100321.97;;;8.54;100.00
54600;BME280;40500;51.084;16.958;2023-03-20T02:09:58;100321.13;;;8.51;100.00
54600;BME280;40500;51.084;16.958;2023-03-20T02:12:41;100321.31;;;8.49;100.00
54600;BME280;40500;51.084;16.958;2023-03-20T02:15:16;100323.95;;;8.47;100.00
54600;BME280;40500;51.084;16.958;2023-03-20T02:17:55;100319.08;;;8.46;100.00
54600;BME280;40500;51.084;16.958;2023-03-20T02:20:35;100321.01;;;8.45;100.00
54600;BME280;40500;51.084;16.958;2023-03-20T02:23:37;100318.21;;;8.45;100.00
54600;BME280;40500;51.084;16.958;2023-03-20T02:26:32;100316.98;;;8.44;100.00
54600;BME280;40500;51.084;16.958;2023-03-20T02:32:33;100322.77;;;8.44;100.00
54600;BME280;40500;51.084;16.958;2023-03-20T02:35:37;100321.53;;;8.45;100.00
54600;BME280;40500;51.084;16.958;2023-03-20T02:38:27;100316.13;;;8.45;100.00
54600;BME280;40500;51.084;16.958;2023-03-20T02:41:03;100314.04;;;8.45;100.00
54600;BME280;40500;51.084;16.958;2023-03-20T02:43:46;100314.40;;;8.43;100.00
54600;BME280;40500;51.084;16.958;2023-03-20T02:46:27;100316.84;;;8.42;100.00
54600;BME280;40500;51.084;16.958;2023-03-20T02:49:05;100314.56;;;8.41;100.00
54600;BME280;40500;51.084;16.958;2023-03-20T02:51:43;100313.68;;;8.40;100.00
54600;BME280;40500;51.084;16.958;2023-03-20T02:54:22;100308.45;;;8.40;100.00
54600;BME280;40500;51.084;16.958;2023-03-20T02:57:01;100310.73;;;8.40;100.00
54600;BME280;40500;51.084;16.958;2023-03-20T02:59:37;100314.71;;;8.41;100.00
54600;BME280;40500;51.084;16.958;2023-03-20T03:02:12;100315.95;;;8.41;100.00
54600;BME280;40500;51.084;16.958;2023-03-20T03:04:50;100315.09;;;8.42;100.00
54600;BME280;40500;51.084;16.958;2023-03-20T03:07:27;100313.00;;;8.43;100.00
54600;BME280;40500;51.084;16.958;2023-03-20T03:10:05;100311.79;;;8.42;100.00
54600;BME280;40500;51.084;16.958;2023-03-20T03:12:39;100310.21;;;8.43;100.00
54600;BME280;40500;51.084;16.958;2023-03-20T03:15:16;100308.46;;;8.43;100.00
54600;BME280;40500;51.084;16.958;2023-03-20T03:17:49;100304.79;;;8.44;100.00
54600;BME280;40500;51.084;16.958;2023-03-20T03:20:23;100303.75;;;8.45;100.00
54600;BME280;40500;51.084;16.958;2023-03-20T03:22:56;100306.51;;;8.46;100.00
54600;BME280;40500;51.084;16.958;2023-03-20T03:25:36;100303.72;;;8.47;100.00
54600;BME280;40500;51.084;16.958;2023-03-20T03:28:14;100301.96;;;8.48;100.00
54600;BME280;40500;51.084;16.958;2023-03-20T03:30:51;100302.82;;;8.49;100.00
54600;BME280;40500;51.084;16.958;2023-03-20T03:33:28;100297.75;;;8.50;100.00
54600;BME280;40500;51.084;16.958;2023-03-20T03:36:06;100303.17;;;8.49;100.00
54600;BME280;40500;51.084;16.958;2023-03-20T03:38:46;100305.25;;;8.49;100.00
54600;BME280;40500;51.084;16.958;2023-03-20T03:41:24;100305.25;;;8.50;100.00
54600;BME280;40500;51.084;16.958;2023-03-20T03:44:06;100303.85;;;8.50;100.00
54600;BME280;40500;51.084;16.958;2023-03-20T03:46:42;100302.10;;;8.51;100.00
54600;BME280;40500;51.084;16.958;2023-03-20T03:49:18;100302.27;;;8.52;100.00
54600;BME280;40500;51.084;16.958;2023-03-20T03:51:54;100295.12;;;8.51;100.00
54600;BME280;40500;51.084;16.958;2023-03-20T03:54:29;100298.10;;;8.51;100.00
54600;BME280;40500;51.084;16.958;2023-03-20T03:57:43;100298.61;;;8.50;100.00
54600;BME280;40500;51.084;16.958;2023-03-20T04:00:19;100294.60;;;8.50;100.00
54600;BME280;40500;51.084;16.958;2023-03-20T04:02:54;100298.26;;;8.51;100.00
54600;BME280;40500;51.084;16.958;2023-03-20T04:05:29;100299.49;;;8.51;100.00
54600;BME280;40500;51.084;16.958;2023-03-20T04:08:02;100303.17;;;8.49;100.00
54600;BME280;40500;51.084;16.958;2023-03-20T04:10:37;100309.30;;;8.48;100.00
54600;BME280;40500;51.084;16.958;2023-03-20T04:13:11;100307.73;;;8.47;100.00
54600;BME280;40500;51.084;16.958;2023-03-20T04:15:42;100311.41;;;8.46;100.00
54600;BME280;40500;51.084;16.958;2023-03-20T04:18:16;100312.80;;;8.45;100.00
54600;BME280;40500;51.084;16.958;2023-03-20T04:20:49;100314.71;;;8.46;100.00
54600;BME280;40500;51.084;16.958;2023-03-20T04:23:20;100313.15;;;8.45;100.00
54600;BME280;40500;51.084;16.958;2023-03-20T04:25:51;100312.11;;;8.45;100.00
54600;BME280;40500;51.084;16.958;2023-03-20T04:28:21;100307.06;;;8.43;100.00
54600;BME280;40500;51.084;16.958;2023-03-20T04:31:00;100311.08;;;8.44;100.00
54600;BME280;40500;51.084;16.958;2023-03-20T04:33:53;100310.20;;;8.42;100.00
54600;BME280;40500;51.084;16.958;2023-03-20T04:36:34;100314.04;;;8.41;100.00
54600;BME280;40500;51.084;16.958;2023-03-20T04:39:07;100310.91;;;8.43;100.00
54600;BME280;40500;51.084;16.958;2023-03-20T04:41:39;100310.02;;;8.43;100.00
54600;BME280;40500;51.084;16.958;2023-03-20T04:44:11;100310.91;;;8.42;100.00
54600;BME280;40500;51.084;16.958;2023-03-20T04:46:44;100312.65;;;8.42;100.00
54600;BME280;40500;51.084;16.958;2023-03-20T04:49:17;100314.23;;;8.42;100.00
54600;BME280;40500;51.084;16.958;2023-03-20T04:51:52;100315.45;;;8.42;100.00
54600;BME280;40500;51.084;16.958;2023-03-20T04:54:35;100315.97;;;8.42;100.00
54600;BME280;40500;51.084;16.958;2023-03-20T04:57:06;100319.29;;;8.42;100.00
54600;BME280;40500;51.084;16.958;2023-03-20T04:59:38;100318.58;;;8.42;100.00
54600;BME280;40500;51.084;16.958;2023-03-20T05:02:08;100321.55;;;8.43;100.00
54600;BME280;40500;51.084;16.958;2023-03-20T05:04:44;100320.66;;;8.45;100.00
54600;BME280;40500;51.084;16.958;2023-03-20T05:07:16;100321.19;;;8.45;100.00
54600;BME280;40500;51.084;16.958;2023-03-20T05:10:02;100325.19;;;8.47;100.00
54600;BME280;40500;51.084;16.958;2023-03-20T05:12:39;100322.92;;;8.46;100.00
54600;BME280;40500;51.084;16.958;2023-03-20T05:15:24;100321.70;;;8.47;100.00
54600;BME280;40500;51.084;16.958;2023-03-20T05:18:15;100321.67;;;8.48;100.00
54600;BME280;40500;51.084;16.958;2023-03-20T05:21:27;100319.57;;;8.49;100.00
54600;BME280;40500;51.084;16.958;2023-03-20T05:24:18;100321.66;;;8.50;100.00
54600;BME280;40500;51.084;16.958;2023-03-20T05:27:08;100328.98;;;8.51;100.00
54600;BME280;40500;51.084;16.958;2023-03-20T05:30:07;100330.73;;;8.51;100.00
54600;BME280;40500;51.084;16.958;2023-03-20T05:32:56;100330.36;;;8.53;100.00
54600;BME280;40500;51.084;16.958;2023-03-20T05:35:27;100338.02;;;8.54;100.00
54600;BME280;40500;51.084;16.958;2023-03-20T05:38:31;100342.71;;;8.58;100.00
54600;BME280;40500;51.084;16.958;2023-03-20T05:41:16;100344.25;;;8.60;100.00
54600;BME280;40500;51.084;16.958;2023-03-20T05:44:23;100345.82;;;8.62;100.00
54600;BME280;40500;51.084;16.958;2023-03-20T05:47:25;100347.89;;;8.64;100.00
54600;BME280;40500;51.084;16.958;2023-03-20T05:50:03;100348.39;;;8.67;100.00
54600;BME280;40500;51.084;16.958;2023-03-20T05:52:51;100349.41;;;8.70;100.00
54600;BME280;40500;51.084;16.958;2023-03-20T05:55:46;100351.13;;;8.74;100.00
54600;BME280;40500;51.084;16.958;2023-03-20T05:58:38;100350.23;;;8.77;100.00
54600;BME280;40500;51.084;16.958;2023-03-20T06:01:29;100344.45;;;8.78;100.00
54600;BME280;40500;51.084;16.958;2023-03-20T06:04:35;100347.92;;;8.81;100.00
54600;BME280;40500;51.084;16.958;2023-03-20T06:07:35;100349.10;;;8.84;100.00
54600;BME280;40500;51.084;16.958;2023-03-20T06:10:12;100349.79;;;8.86;100.00
54600;BME280;40500;51.084;16.958;2023-03-20T06:12:43;100346.98;;;8.87;100.00
54600;BME280;40500;51.084;16.958;2023-03-20T06:15:14;100346.26;;;8.89;100.00
54600;BME280;40500;51.084;16.958;2023-03-20T06:17:50;100349.22;;;8.90;100.00
54600;BME280;40500;51.084;16.958;2023-03-20T06:20:21;100347.29;;;8.91;100.00
54600;BME280;40500;51.084;16.958;2023-03-20T06:22:52;100355.63;;;8.95;100.00
54600;BME280;40500;51.084;16.958;2023-03-20T06:25:24;100356.98;;;8.99;100.00
54600;BME280;40500;51.084;16.958;2023-03-20T06:27:56;100365.31;;;9.04;100.00
54600;BME280;40500;51.084;16.958;2023-03-20T06:30:27;100365.60;;;9.11;100.00
54600;BME280;40500;51.084;16.958;2023-03-20T06:32:58;100367.11;;;9.16;100.00
54600;BME280;40500;51.084;16.958;2023-03-20T06:35:38;100371.79;;;9.21;100.00
54600;BME280;40500;51.084;16.958;2023-03-20T06:38:09;100371.76;;;9.23;100.00
54600;BME280;40500;51.084;16.958;2023-03-20T06:40:43;100369.64;;;9.24;100.00
54600;BME280;40500;51.084;16.958;2023-03-20T06:43:17;100373.12;;;9.26;100.00
54600;BME280;40500;51.084;16.958;2023-03-20T06:45:53;100374.13;;;9.29;100.00
54600;BME280;40500;51.084;16.958;2023-03-20T06:48:27;100368.52;;;9.32;100.00
54600;BME280;40500;51.084;16.958;2023-03-20T06:50:58;100370.91;;;9.37;100.00
54600;BME280;40500;51.084;16.958;2023-03-20T06:53:34;100372.45;;;9.39;100.00
54600;BME280;40500;51.084;16.958;2023-03-20T06:56:08;100380.50;;;9.39;100.00
54600;BME280;40500;51.084;16.958;2023-03-20T06:58:41;100374.88;;;9.41;100.00
54600;BME280;40500;51.084;16.958;2023-03-20T07:01:13;100377.14;;;9.42;100.00
54600;BME280;40500;51.084;16.958;2023-03-20T07:03:45;100373.65;;;9.42;100.00
54600;BME280;40500;51.084;16.958;2023-03-20T07:06:16;100374.67;;;9.43;100.00
54600;BME280;40500;51.084;16.958;2023-03-20T07:08:48;100371.70;;;9.44;100.00
54600;BME280;40500;51.084;16.958;2023-03-20T07:11:19;100374.11;;;9.46;100.00
54600;BME280;40500;51.084;16.958;2023-03-20T07:13:53;100373.06;;;9.47;100.00
54600;BME280;40500;51.084;16.958;2023-03-20T07:16:43;100374.63;;;9.47;100.00
54600;BME280;40500;51.084;16.958;2023-03-20T07:19:14;100376.70;;;9.48;100.00
54600;BME280;40500;51.084;16.958;2023-03-20T07:21:46;100378.45;;;9.48;100.00
54600;BME280;40500;51.084;16.958;2023-03-20T07:24:17;100380.89;;;9.51;100.00
54600;BME280;40500;51.084;16.958;2023-03-20T07:26:47;100382.95;;;9.53;100.00
54600;BME280;40500;51.084;16.958;2023-03-20T07:29:19;100380.46;;;9.56;100.00
54600;BME280;40500;51.084;16.958;2023-03-20T07:31:49;100383.00;;;9.64;100.00
54600;BME280;40500;51.084;16.958;2023-03-20T07:34:30;100382.02;;;9.71;100.00
54600;BME280;40500;51.084;16.958;2023-03-20T07:37:02;100381.61;;;9.77;100.00
54600;BME280;40500;51.084;16.958;2023-03-20T07:39:33;100382.20;;;9.84;100.00
54600;BME280;40500;51.084;16.958;2023-03-20T07:42:27;100382.84;;;9.91;100.00
54600;BME280;40500;51.084;16.958;2023-03-20T07:45:03;100381.34;;;9.97;100.00
54600;BME280;40500;51.084;16.958;2023-03-20T07:47:33;100383.32;;;10.06;100.00
54600;BME280;40500;51.084;16.958;2023-03-20T07:50:06;100384.27;;;10.12;100.00
54600;BME280;40500;51.084;16.958;2023-03-20T07:52:37;100389.27;;;10.18;100.00
54600;BME280;40500;51.084;16.958;2023-03-20T07:55:08;100392.00;;;10.22;100.00
54600;BME280;40500;51.084;16.958;2023-03-20T07:57:39;100395.98;;;10.25;100.00
54600;BME280;40500;51.084;16.958;2023-03-20T08:00:11;100392.99;;;10.26;100.00
54600;BME280;40500;51.084;16.958;2023-03-20T08:02:43;100390.94;;;10.23;100.00
54600;BME280;40500;51.084;16.958;2023-03-20T08:05:14;100392.55;;;10.21;100.00
54600;BME280;40500;51.084;16.958;2023-03-20T08:07:45;100394.33;;;10.19;100.00
54600;BME280;40500;51.084;16.958;2023-03-20T08:10:16;100397.14;;;10.17;100.00
54600;BME280;40500;51.084;16.958;2023-03-20T08:12:47;100401.18;;;10.17;100.00
54600;BME280;40500;51.084;16.958;2023-03-20T08:15:18;100398.41;;;10.14;100.00
54600;BME280;40500;51.084;16.958;2023-03-20T08:17:48;100398.11;;;10.12;100.00
54600;BME280;40500;51.084;16.958;2023-03-20T08:20:19;100397.77;;;10.10;100.00
54600;BME280;40500;51.084;16.958;2023-03-20T08:22:49;100397.29;;;10.08;100.00
54600;BME280;40500;51.084;16.958;2023-03-20T08:25:20;100401.99;;;10.09;100.00
54600;BME280;40500;51.084;16.958;2023-03-20T08:27:51;100401.27;;;10.10;100.00
54600;BME280;40500;51.084;16.958;2023-03-20T08:30:21;100404.80;;;10.08;100.00
54600;BME280;40500;51.084;16.958;2023-03-20T08:32:52;100401.00;;;10.04;100.00
54600;BME280;40500;51.084;16.958;2023-03-20T08:35:22;100406.81;;;10.02;100.00
54600;BME280;40500;51.084;16.958;2023-03-20T08:38:01;100408.63;;;9.98;100.00
54600;BME280;40500;51.084;16.958;2023-03-20T08:40:32;100412.84;;;9.96;100.00
54600;BME280;40500;51.084;16.958;2023-03-20T08:43:02;100409.19;;;9.94;100.00
54600;BME280;40500;51.084;16.958;2023-03-20T08:45:33;100412.70;;;9.94;100.00
54600;BME280;40500;51.084;16.958;2023-03-20T08:48:06;100413.36;;;9.96;100.00
54600;BME280;40500;51.084;16.958;2023-03-20T08:50:37;100409.85;;;9.98;100.00
54600;BME280;40500;51.084;16.958;2023-03-20T08:53:08;100415.23;;;10.01;100.00
54600;BME280;40500;51.084;16.958;2023-03-20T08:55:39;100413.80;;;10.03;100.00
54600;BME280;40500;51.084;16.958;2023-03-20T08:58:09;100415.02;;;10.04;100.00
54600;BME280;40500;51.084;16.958;2023-03-20T09:00:39;100419.02;;;10.06;100.00
54600;BME280;40500;51.084;16.958;2023-03-20T09:03:13;100420.21;;;10.07;100.00
54600;BME280;40500;51.084;16.958;2023-03-20T09:05:45;100420.20;;;10.09;100.00
54600;BME280;40500;51.084;16.958;2023-03-20T09:08:16;100420.14;;;10.12;100.00
54600;BME280;40500;51.084;16.958;2023-03-20T09:10:48;100422.33;;;10.19;100.00
54600;BME280;40500;51.084;16.958;2023-03-20T09:13:21;100415.39;;;10.27;100.00
54600;BME280;40500;51.084;16.958;2023-03-20T09:15:56;100422.64;;;10.36;100.00
54600;BME280;40500;51.084;16.958;2023-03-20T09:18:26;100419.58;;;10.42;100.00
54600;BME280;40500;51.084;16.958;2023-03-20T09:20:57;100424.04;;;10.48;100.00
54600;BME280;40500;51.084;16.958;2023-03-20T09:23:27;100423.43;;;10.53;100.00
54600;BME280;40500;51.084;16.958;2023-03-20T09:25:58;100423.23;;;10.56;100.00
54600;BME280;40500;51.084;16.958;2023-03-20T09:28:28;100419.86;;;10.58;100.00
54600;BME280;40500;51.084;16.958;2023-03-20T09:31:00;100424.71;;;10.61;100.00
54600;BME280;40500;51.084;16.958;2023-03-20T09:33:30;100420.55;;;10.59;100.00
54600;BME280;40500;51.084;16.958;2023-03-20T09:36:01;100419.12;;;10.61;100.00
54600;BME280;40500;51.084;16.958;2023-03-20T09:38:31;100418.65;;;10.68;100.00
54600;BME280;40500;51.084;16.958;2023-03-20T09:41:02;100418.30;;;10.79;100.00
54600;BME280;40500;51.084;16.958;2023-03-20T09:43:43;100412.81;;;10.93;100.00
54600;BME280;40500;51.084;16.958;2023-03-20T09:46:28;100412.73;;;11.08;100.00
54600;BME280;40500;51.084;16.958;2023-03-20T09:49:09;100411.05;;;11.22;100.00
54600;BME280;40500;51.084;16.958;2023-03-20T09:51:45;100402.36;;;11.38;100.00
54600;BME280;40500;51.084;16.958;2023-03-20T09:54:23;100409.98;;;11.51;100.00
54600;BME280;40500;51.084;16.958;2023-03-20T09:56:56;100408.90;;;11.62;100.00
54600;BME280;40500;51.084;16.958;2023-03-20T09:59:27;100405.69;;;11.73;100.00
54600;BME280;40500;51.084;16.958;2023-03-20T10:02:01;100407.23;;;11.93;100.00
54600;BME280;40500;51.084;16.958;2023-03-20T10:04:35;100406.46;;;12.04;100.00
54600;BME280;40500;51.084;16.958;2023-03-20T10:07:08;100404.14;;;12.15;100.00
54600;BME280;40500;51.084;16.958;2023-03-20T10:09:40;100401.38;;;12.20;100.00
54600;BME280;40500;51.084;16.958;2023-03-20T10:12:39;100401.23;;;12.26;100.00
54600;BME280;40500;51.084;16.958;2023-03-20T10:15:19;100395.92;;;12.36;100.00
54600;BME280;40500;51.084;16.958;2023-03-20T10:18:04;100396.33;;;12.49;100.00
54600;BME280;40500;51.084;16.958;2023-03-20T10:20:43;100398.11;;;12.62;100.00
54600;BME280;40500;51.084;16.958;2023-03-20T10:23:26;100394.95;;;12.77;100.00
54600;BME280;40500;51.084;16.958;2023-03-20T10:26:04;100390.76;;;12.96;100.00
54600;BME280;40500;51.084;16.958;2023-03-20T10:28:41;100385.24;;;13.12;100.00
54600;BME280;40500;51.084;16.958;2023-03-20T10:31:23;100385.32;;;13.29;100.00
54600;BME280;40500;51.084;16.958;2023-03-20T10:34:12;100376.45;;;13.46;100.00
54600;BME280;40500;51.084;16.958;2023-03-20T10:36:55;100369.76;;;13.52;100.00
54600;BME280;40500;51.084;16.958;2023-03-20T10:39:42;100368.45;;;13.60;100.00
54600;BME280;40500;51.084;16.958;2023-03-20T10:42:20;100368.99;;;13.66;100.00
54600;BME280;40500;51.084;16.958;2023-03-20T10:44:57;100366.31;;;13.62;100.00
54600;BME280;40500;51.084;16.958;2023-03-20T10:47:32;100359.44;;;13.62;100.00
54600;BME280;40500;51.084;16.958;2023-03-20T10:50:09;100361.52;;;13.63;100.00
54600;BME280;40500;51.084;16.958;2023-03-20T10:52:47;100359.39;;;13.75;100.00
54600;BME280;40500;51.084;16.958;2023-03-20T10:55:21;100359.13;;;13.84;100.00
54600;BME280;40500;51.084;16.958;2023-03-20T10:57:59;100354.88;;;14.08;100.00
54600;BME280;40500;51.084;16.958;2023-03-20T11:00:30;100348.98;;;14.22;100.00
54600;BME280;40500;51.084;16.958;2023-03-20T11:03:02;100348.33;;;14.27;100.00
54600;BME280;40500;51.084;16.958;2023-03-20T11:05:34;100348.23;;;14.24;100.00
54600;BME280;40500;51.084;16.958;2023-03-20T11:08:10;100345.87;;;14.14;100.00
54600;BME280;40500;51.084;16.958;2023-03-20T11:10:42;100342.47;;;14.05;100.00
54600;BME280;40500;51.084;16.958;2023-03-20T11:13:24;100342.41;;;14.07;100.00
54600;BME280;40500;51.084;16.958;2023-03-20T11:15:57;100345.02;;;14.20;100.00
54600;BME280;40500;51.084;16.958;2023-03-20T11:18:36;100347.61;;;14.43;100.00
54600;BME280;40500;51.084;16.958;2023-03-20T11:21:16;100345.86;;;14.59;100.00
54600;BME280;40500;51.084;16.958;2023-03-20T11:23:48;100344.17;;;14.78;100.00
54600;BME280;40500;51.084;16.958;2023-03-20T11:26:29;100340.23;;;14.85;100.00
54600;BME280;40500;51.084;16.958;2023-03-20T11:29:01;100337.88;;;15.02;100.00
54600;BME280;40500;51.084;16.958;2023-03-20T11:31:37;100338.10;;;15.26;100.00
54600;BME280;40500;51.084;16.958;2023-03-20T11:34:22;100336.96;;;15.28;100.00
54600;BME280;40500;51.084;16.958;2023-03-20T11:36:57;100335.16;;;15.14;100.00
54600;BME280;40500;51.084;16.958;2023-03-20T11:39:38;100337.57;;;15.01;100.00
54600;BME280;40500;51.084;16.958;2023-03-20T11:42:25;100340.92;;;14.95;100.00
54600;BME280;40500;51.084;16.958;2023-03-20T11:45:01;100334.84;;;14.88;100.00
54600;BME280;40500;51.084;16.958;2023-03-20T11:47:34;100333.10;;;14.82;100.00
54600;BME280;40500;51.084;16.958;2023-03-20T11:50:23;100337.54;;;14.76;100.00
54600;BME280;40500;51.084;16.958;2023-03-20T11:52:54;100324.05;;;14.79;100.00
54600;BME280;40500;51.084;16.958;2023-03-20T11:55:27;100328.41;;;14.90;100.00
54600;BME280;40500;51.084;16.958;2023-03-20T11:58:00;100323.16;;;15.24;100.00
54600;BME280;40500;51.084;16.958;2023-03-20T12:00:37;100320.52;;;15.43;100.00
54600;BME280;40500;51.084;16.958;2023-03-20T12:03:44;100318.20;;;15.49;100.00
54600;BME280;40500;51.084;16.958;2023-03-20T12:06:18;100312.70;;;15.58;100.00
54600;BME280;40500;51.084;16.958;2023-03-20T12:08:52;100310.30;;;15.76;100.00
54600;BME280;40500;51.084;16.958;2023-03-20T12:11:46;100310.11;;;15.90;100.00
54600;BME280;40500;51.084;16.958;2023-03-20T12:14:22;100308.19;;;15.94;100.00
54600;BME280;40500;51.084;16.958;2023-03-20T12:17:16;100305.19;;;16.03;100.00
54600;BME280;40500;51.084;16.958;2023-03-20T12:19:51;100299.95;;;16.01;100.00
54600;BME280;40500;51.084;16.958;2023-03-20T12:22:27;100292.52;;;16.10;100.00
54600;BME280;40500;51.084;16.958;2023-03-20T12:25:06;100296.44;;;16.27;100.00
54600;BME280;40500;51.084;16.958;2023-03-20T12:27:46;100293.52;;;16.51;100.00
54600;BME280;40500;51.084;16.958;2023-03-20T12:30:25;100284.60;;;16.78;100.00
54600;BME280;40500;51.084;16.958;2023-03-20T12:33:03;100281.27;;;17.09;100.00
54600;BME280;40500;51.084;16.958;2023-03-20T12:35:39;100278.09;;;18.14;100.00
54600;BME280;40500;51.084;16.958;2023-03-20T12:38:22;100263.60;;;20.05;100.00
54600;BME280;40500;51.084;16.958;2023-03-20T12:40:57;100258.64;;;21.67;100.00
54600;BME280;40500;51.084;16.958;2023-03-20T12:43:39;100249.23;;;22.82;100.00
54600;BME280;40500;51.084;16.958;2023-03-20T12:46:22;100242.13;;;23.47;100.00
54600;BME280;40500;51.084;16.958;2023-03-20T12:49:02;100242.45;;;23.99;100.00
54600;BME280;40500;51.084;16.958;2023-03-20T12:51:45;100236.88;;;25.01;100.00
54600;BME280;40500;51.084;16.958;2023-03-20T12:54:29;100230.27;;;25.81;100.00
54600;BME280;40500;51.084;16.958;2023-03-20T12:57:14;100225.75;;;26.86;100.00
54600;BME280;40500;51.084;16.958;2023-03-20T13:00:01;100223.13;;;27.36;96.70
54600;BME280;40500;51.084;16.958;2023-03-20T13:02:46;100222.20;;;27.79;96.57
54600;BME280;40500;51.084;16.958;2023-03-20T13:05:30;100224.73;;;27.49;88.21
54600;BME280;40500;51.084;16.958;2023-03-20T13:08:16;100226.37;;;24.90;94.42
54600;BME280;40500;51.084;16.958;2023-03-20T13:10:58;100229.23;;;22.81;99.01
54600;BME280;40500;51.084;16.958;2023-03-20T13:13:38;100233.98;;;21.62;100.00
54600;BME280;40500;51.084;16.958;2023-03-20T13:16:20;100230.02;;;22.70;100.00
54600;BME280;40500;51.084;16.958;2023-03-20T13:19:02;100229.28;;;23.71;97.09
54600;BME280;40500;51.084;16.958;2023-03-20T13:21:42;100238.31;;;22.79;98.43
54600;BME280;40500;51.084;16.958;2023-03-20T13:24:26;100239.96;;;21.80;100.00
54600;BME280;40500;51.084;16.958;2023-03-20T13:27:09;100245.19;;;23.09;99.92
54600;BME280;40500;51.084;16.958;2023-03-20T13:29:47;100241.65;;;23.46;91.15